• Join FlightAware (Why Join?)
  • Login
  • US Flag 
04:54AM EST


 

Airport Tracker/Info


-or-


 

Live Flight TrackerFlight Track Log ✈ DAL655 ✈ 22-Jul-2014 ✈ KATL - TNCA / AUA

Flight Track Log - Related Links

Times and Time Zones

All times are in EDT time to prevent confusion due to time zone crossing. See the DAL655 flight status page for this flight to view local times or setup timezone preferences in your user account.

Time Position Orientation Groundspeed Altitude Reporting Facility
EDT Latitude Longitude Course Direction KTS MPH feet Rate Location/Type
10:10AM 33.6308 -84.3806 164° South 481 554 3,000  Level Atlanta Center
10:11AM 33.6000 -84.3000 115° Southeast 260 299 5,200 2,471 Climbing Atlanta TRACON
10:12AM 33.5500 -84.2667 151° Southeast 286 329 7,900 2,366 Climbing Atlanta TRACON
10:14AM 33.3703 -84.2378 172° South 320 368 12,100 2,287 Climbing Atlanta Center
10:15AM 33.1271 -84.2026 168° South  Level FlightAware Approximate
10:15AM 33.2661 -84.2203 172° South 360 414 14,800  Level Atlanta Center
10:16AM 33.0073 -84.1746 164° South  Level FlightAware Approximate
10:16AM 33.1617 -84.2025 172° South 377 434 17,900  Level Atlanta Center
10:17AM 33.0742 -84.1900 173° South 384 442 18,700 1,250 Climbing Atlanta Center
10:18AM 32.9508 -84.1578 168° South 400 460 20,400 1,800 Climbing Atlanta Center
10:19AM 32.8425 -84.1081 159° South 412 474 22,300 1,750 Climbing Atlanta Center
10:20AM 32.7297 -84.0636 162° South 424 488 23,900 1,600 Climbing Atlanta Center
10:21AM 32.6128 -84.0142 160° South 429 494 25,500 1,500 Climbing Atlanta Center
10:22AM 32.4981 -83.9675 161° South 429 494 26,900 1,300 Climbing Atlanta Center
10:23AM 32.3811 -83.9208 161° South 439 505 28,100 1,361 Climbing Atlanta Center
10:25AM 32.1194 -83.8125 161° South 451 519 31,300 1,454 Climbing Jacksonville Center
10:26AM 32.0047 -83.7672 161° South 445 512 32,800 850 Climbing Jacksonville Center
10:27AM 31.8800 -83.7097 159° South 439 505 33,000 100 Climbing Jacksonville Center
10:28AM 31.7633 -83.6697 164° South 439 505 33,000  Level Jacksonville Center
10:29AM 31.6489 -83.6197 160° South 439 505 33,000  Level Jacksonville Center
10:30AM 31.5300 -83.5750 162° South 452 520 33,000  Level Jacksonville Center
10:31AM 31.4133 -83.5303 162° South 447 514 33,000  Level Jacksonville Center
10:32AM 31.2967 -83.4858 162° South 442 509 33,000  Level Jacksonville Center
10:33AM 31.1800 -83.4389 161° South 442 509 33,000  Level Jacksonville Center
10:34AM 31.0653 -83.3922 161° South 442 509 33,000  Level Jacksonville Center
10:35AM 30.9464 -83.3481 162° South 442 509 33,000  Level Jacksonville Center
10:36AM 30.8317 -83.3014 161° South 442 509 33,000  Level Jacksonville Center
10:37AM 30.7233 -83.2406 154° Southeast 442 509 33,000  Level Jacksonville Center
10:38AM 30.6150 -83.1653 149° Southeast 442 509 33,000  Level Jacksonville Center
10:39AM 30.5106 -83.0928 149° Southeast 442 509 33,000  Level Jacksonville Center
10:40AM 30.4000 -83.0228 151° Southeast 447 514 33,000  Level Jacksonville Center
10:41AM 30.2936 -82.9503 150° Southeast 442 509 33,000  Level Jacksonville Center
10:42AM 30.1872 -82.8781 150° Southeast 442 509 33,000  Level Jacksonville Center
10:43AM 30.0806 -82.8061 150° Southeast 442 509 33,000  Level Jacksonville Center
10:44AM 29.9825 -82.7464 152° Southeast 442 509 33,000  Level Jacksonville Center
10:45AM 29.8781 -82.6769 150° Southeast 442 509 33,000  Level Jacksonville Center
10:46AM 29.7692 -82.6006 149° Southeast 442 509 33,000  Level Jacksonville Center
10:47AM 29.6647 -82.5317 150° Southeast 442 509 33,000  Level Jacksonville Center
10:48AM 29.5581 -82.4606 150° Southeast 442 509 33,000  Level Jacksonville Center
10:49AM 29.4472 -82.3894 151° Southeast 442 509 33,000  Level Jacksonville Center
10:50AM 29.3425 -82.3208 150° Southeast 442 509 33,000  Level Jacksonville Center
10:51AM 29.2336 -82.2500 150° Southeast 442 509 33,000  Level Jacksonville Center
10:52AM 29.1267 -82.1794 150° Southeast 442 509 33,000  Level Jacksonville Center
10:54AM 28.9342 -82.0553 151° Southeast 451 519 33,000  Level Miami Center
10:55AM 28.8106 -81.9747 150° Southeast 450 518 33,000  Level Miami Center
10:56AM 28.7011 -81.9044 151° Southeast 449 517 33,000  Level Miami Center
10:57AM 28.5919 -81.8328 150° Southeast 450 518 33,000  Level Miami Center
10:58AM 28.4889 -81.7500 145° Southeast 452 520 33,000  Level Miami Center
10:59AM 28.3903 -81.6583 141° Southeast 459 528 33,000  Level Miami Center
11:00AM 28.2697 -81.5503 142° Southeast 459 528 33,000  Level Miami Center
11:02AM 28.1708 -81.4603 141° Southeast 460 529 33,000  Level Miami Center
11:03AM 28.0594 -81.3592 141° Southeast 459 528 33,000  Level Miami Center
11:04AM 27.9628 -81.2717 141° Southeast 459 528 33,000  Level Miami Center
11:05AM 27.8583 -81.1781 142° Southeast 460 529 33,000  Level Miami Center
11:06AM 27.7542 -81.0850 142° Southeast 460 529 33,000  Level Miami Center
11:07AM 27.6653 -81.0058 142° Southeast 461 531 33,000  Level Miami Center
11:08AM 27.5636 -80.9156 142° Southeast 462 532 33,000  Level Miami Center
11:09AM 27.4417 -80.8072 142° Southeast 467 537 33,000  Level Miami Center
11:11AM 27.2253 -80.6344 145° Southeast 456 525 33,000 290 Level Miami Center
11:12AM 27.1156 -80.5642 150° Southeast 457 526 33,900 968 Climbing Miami Center
11:13AM 27.0067 -80.4928 150° Southeast 456 525 35,000 532 Climbing Miami Center
11:14AM 26.8992 -80.4225 150° Southeast 452 520 35,000 653 Level Miami Center
11:16AM 26.7780 -80.3233 144° Southeast  Level Estimated
11:17AM 26.5589 -80.1764 144° Southeast 447 514 37,700  Level Miami Center
11:18AM 26.4619 -80.0964 144° Southeast 431 496 38,700 629 Climbing Miami Center
11:19AM 26.3758 -80.0053 137° Southeast 427 491 39,000 145 Climbing Miami Center
11:20AM 26.2839 -79.9039 135° Southeast 429 494 39,000  Level Miami Center
11:21AM 26.2219 -79.8142 128° Southeast 434 499 39,000  Level Miami Center
11:22AM 26.1322 -79.6847 128° Southeast 437 503 39,000  Level Miami Center
11:23AM 26.0592 -79.5753 127° Southeast 438 504 39,000  Level Miami Center
11:24AM 25.9853 -79.4675 127° Southeast 438 504 39,000  Level Miami Center
11:25AM 25.8856 -79.3867 144° Southeast 444 511 39,000  Level Miami Center
11:26AM 25.7714 -79.3283 155° Southeast 448 516 39,000  Level Miami Center
11:27AM 25.6694 -79.2500 145° Southeast 450 518 39,000  Level Miami Center
11:28AM 25.5875 -79.1478 132° Southeast 447 514 39,000  Level Miami Center
11:29AM 25.4922 -79.0247 131° Southeast 443 510 39,000  Level Miami Center
11:30AM 25.4050 -78.9169 132° Southeast 439 505 39,000  Level Miami Center
11:31AM 25.3222 -78.8167 132° Southeast 440 506 39,000  Level Miami Center
11:33AM 25.2422 -78.7167 131° Southeast 435 501 39,000  Level Miami Center
11:34AM 25.1528 -78.6056 132° Southeast 436 502 39,000  Level Miami Center
11:35AM 25.0719 -78.5058 132° Southeast 436 502 39,000  Level Miami Center
11:36AM 24.9900 -78.4058 132° Southeast 436 502 39,000  Level Miami Center
11:37AM 24.9089 -78.3058 132° Southeast 437 503 39,000  Level Miami Center
11:38AM 24.8183 -78.1958 132° Southeast 437 503 39,000  Level Miami Center
11:39AM 24.7367 -78.0958 132° Southeast 437 503 39,000  Level Miami Center
11:40AM 24.6556 -77.9969 132° Southeast 437 503 39,000  Level Miami Center
11:41AM 24.5650 -77.8867 132° Southeast 438 504 39,000  Level Miami Center
11:42AM 24.4828 -77.7861 132° Southeast 440 506 39,000  Level Miami Center
11:43AM 24.4014 -77.6875 132° Southeast 439 505 39,000  Level Miami Center
11:44AM 24.3111 -77.5781 132° Southeast 439 505 39,000  Level Miami Center
11:45AM 24.2292 -77.4800 132° Southeast 439 505 39,000  Level Miami Center
11:46AM 24.1481 -77.3806 132° Southeast 437 503 39,000  Level Miami Center
11:47AM 24.0583 -77.2736 133° Southeast 437 503 39,000  Level Miami Center
11:48AM 23.9758 -77.1747 132° Southeast 437 503 39,000  Level Miami Center
11:49AM 23.8944 -77.0781 133° Southeast 436 502 39,000  Level Miami Center
11:50AM 23.8194 -76.9864 132° Southeast 435 501 39,000  Level Miami Center
11:51AM 23.7392 -76.8906 132° Southeast 431 496 39,000  Level Miami Center
11:52AM 23.6425 -76.7764 133° Southeast 429 494 39,000  Level Miami Center
11:53AM 23.5631 -76.6803 132° Southeast 429 494 39,000  Level Miami Center
11:54AM 23.4825 -76.5850 133° Southeast 428 493 39,000  Level Miami Center
11:55AM 23.4033 -76.4906 132° Southeast 427 491 39,000  Level Miami Center
11:56AM 23.3233 -76.3967 133° Southeast 425 489 39,000  Level Miami Center
11:57AM 23.2450 -76.3036 132° Southeast 423 487 39,000  Level Miami Center
11:58AM 23.1497 -76.1917 133° Southeast 423 487 39,000  Level Miami Center
11:59AM 23.0700 -76.0992 133° Southeast 423 487 39,000  Level Miami Center
12:00PM 22.9914 -76.0056 132° Southeast 422 486 39,000  Level Miami Center
12:01PM 22.9122 -75.9128 133° Southeast 422 486 39,000  Level Miami Center
12:02PM 22.8325 -75.8203 133° Southeast 421 484 39,000  Level Miami Center
12:03PM 22.7539 -75.7261 132° Southeast 421 484 39,000  Level Miami Center
12:05PM 22.6583 -75.6153 133° Southeast 421 484 39,000  Level Miami Center
12:06PM 22.5775 -75.5214 133° Southeast 422 486 39,000  Level Miami Center
12:07PM 22.4964 -75.4294 134° Southeast 422 486 39,000  Level Miami Center
12:08PM 22.4158 -75.3344 133° Southeast 424 488 39,000  Level Miami Center
12:09PM 22.3356 -75.2411 133° Southeast 424 488 39,000  Level Miami Center
12:10PM 22.2542 -75.1486 134° Southeast 423 487 39,000  Level Miami Center
12:11PM 22.1706 -75.0542 134° Southeast 431 496 39,000  Level Miami Center
12:12PM 22.0603 -74.9517 139° Southeast 432 497 39,000  Level Miami Center
12:13PM 21.9678 -74.8664 139° Southeast 433 498 39,000  Level Miami Center
12:14PM 21.8753 -74.7822 140° Southeast 434 499 39,000  Level Miami Center
12:15PM 21.7831 -74.6978 140° Southeast 434 499 39,000  Level Miami Center
12:16PM 21.6889 -74.6108 139° Southeast 435 501 39,000  Level Miami Center
12:17PM 21.5958 -74.5261 140° Southeast 436 502 39,000  Level Miami Center
12:18PM 21.5028 -74.4400 139° Southeast 438 504 39,000  Level Miami Center
12:19PM 21.4083 -74.3547 140° Southeast 439 505 39,000  Level Miami Center
12:20PM 21.3133 -74.2683 140° Southeast 442 509 39,000  Level Miami Center
12:21PM 21.2000 -74.1667 140° Southeast 444 511 39,000  Level Miami Center
12:22PM 21.1056 -74.0783 139° Southeast 445 512 39,000  Level Miami Center
12:23PM 21.0097 -73.9933 140° Southeast 446 513 39,000  Level Miami Center
12:24PM 20.9139 -73.9061 140° Southeast 447 514 39,000  Level Miami Center
12:25PM 20.8175 -73.8197 140° Southeast 447 514 39,000  Level Miami Center
12:26PM 20.7231 -73.7347 140° Southeast 446 513 39,000  Level Miami Center
12:27PM 20.6267 -73.6478 140° Southeast 447 514 39,000  Level Miami Center
12:28PM 20.5131 -73.5450 140° Southeast 446 513 39,000  Level Miami Center
12:29PM 20.4181 -73.4597 140° Southeast 446 513 39,000  Level Miami Center
12:30PM 20.3217 -73.3750 140° Southeast 446 513 39,000  Level Miami Center
12:31PM 20.2244 -73.2886 140° Southeast 445 512 39,000  Level Miami Center
12:32PM 20.1281 -73.2075 142° Southeast 449 517 39,000  Level Miami Center
12:34PM 20.0037 -73.1352 151° Southeast  Level FlightAware Approximate
12:41PM 19.2774 -72.7158 152° Southeast  Level FlightAware Approximate
12:42PM 19.1734 -72.6566 152° Southeast  Level FlightAware Approximate
12:43PM 19.0693 -72.5975 152° Southeast  Level FlightAware Approximate
12:44PM 18.9652 -72.5385 152° Southeast  Level FlightAware Approximate
12:45PM 18.8611 -72.4795 152° Southeast  Level FlightAware Approximate
12:46PM 18.7570 -72.4206 152° Southeast  Level FlightAware Approximate
12:47PM 18.6532 -72.3613 152° Southeast  Level FlightAware Approximate
12:48PM 18.5493 -72.3020 152° Southeast  Level FlightAware Approximate
12:49PM 18.4454 -72.2427 152° Southeast  Level FlightAware Approximate
12:50PM 18.3415 -72.1836 152° Southeast  Level FlightAware Approximate
12:51PM 18.2376 -72.1245 152° Southeast  Level FlightAware Approximate
12:52PM 18.1337 -72.0655 152° Southeast  Level FlightAware Approximate
12:53PM 18.0297 -72.0065 152° Southeast  Level FlightAware Approximate
12:54PM 17.9258 -71.9476 152° Southeast  Level FlightAware Approximate
12:55PM 17.8218 -71.8888 152° Southeast  Level FlightAware Approximate
12:56PM 17.7178 -71.8300 152° Southeast  Level FlightAware Approximate
12:57PM 17.6137 -71.7714 152° Southeast  Level FlightAware Approximate
12:58PM 17.5097 -71.7128 152° Southeast  Level FlightAware Approximate
12:59PM 17.4053 -71.6549 152° Southeast  Level FlightAware Approximate
01:00PM 17.3008 -71.5972 152° Southeast  Level FlightAware Approximate
01:01PM 17.1964 -71.5394 152° Southeast  Level FlightAware Approximate
01:02PM 17.0919 -71.4818 152° Southeast  Level FlightAware Approximate
01:03PM 16.9875 -71.4242 152° Southeast  Level FlightAware Approximate
01:04PM 16.8830 -71.3666 152° Southeast  Level FlightAware Approximate
01:05PM 16.7785 -71.3092 152° Southeast  Level FlightAware Approximate
01:06PM 16.6740 -71.2518 152° Southeast  Level FlightAware Approximate
01:07PM 16.5694 -71.1944 152° Southeast  Level FlightAware Approximate
01:08PM 16.4649 -71.1372 152° Southeast  Level FlightAware Approximate
01:09PM 16.3603 -71.0799 152° Southeast  Level FlightAware Approximate
01:10PM 16.2557 -71.0228 152° Southeast  Level FlightAware Approximate
01:11PM 16.1511 -70.9657 152° Southeast  Level FlightAware Approximate
01:12PM 16.0465 -70.9087 152° Southeast  Level FlightAware Approximate
01:13PM 15.9421 -70.8513 152° Southeast  Level FlightAware Approximate
01:14PM 15.8378 -70.7937 152° Southeast  Level FlightAware Approximate
01:15PM 15.7335 -70.7361 152° Southeast  Level FlightAware Approximate
01:16PM 15.6269 -70.6774 152° Southeast  Level FlightAware Approximate
01:17PM 15.5202 -70.6187 152° Southeast  Level FlightAware Approximate
01:18PM 15.4136 -70.5601 152° Southeast  Level FlightAware Approximate
01:19PM 15.3069 -70.5015 152° Southeast  Level FlightAware Approximate
01:20PM 15.2003 -70.4430 152° Southeast  Level FlightAware Approximate
01:21PM 15.0936 -70.3846 152° Southeast  Level FlightAware Approximate
01:22PM 14.9868 -70.3264 153° Southeast  Level FlightAware Approximate
01:23PM 14.8792 -70.2697 153° Southeast  Level FlightAware Approximate
01:24PM 14.7717 -70.2131 153° Southeast  Level FlightAware Approximate
01:25PM 14.6647 -70.1554 150° Southeast  Level FlightAware Approximate
01:26PM 14.5603 -70.0928 150° Southeast  Level FlightAware Approximate
01:27PM 14.4559 -70.0302 150° Southeast  Level FlightAware Approximate
01:28PM 14.3413 -70.0000 180° South  Level FlightAware Approximate
01:29PM 14.2208 -69.9953 177° South  Level FlightAware Approximate
01:30PM 14.1003 -69.9883 177° South  Level FlightAware Approximate
01:31PM 13.9797 -69.9833 180° South  Level FlightAware Approximate
01:32PM 13.8590 -69.9833 180° South  Level FlightAware Approximate
01:33PM 13.7384 -69.9833 180° South  Level FlightAware Approximate
01:34PM 13.6177 -69.9796 178° South  Level FlightAware Approximate
01:35PM 13.4971 -69.9757 178° South  Level FlightAware Approximate
01:36PM 13.3765 -69.9718 178° South  Level FlightAware Approximate
01:37PM 13.2559 -69.9679 178° South  Level FlightAware Approximate
01:38PM 13.1356 -69.9586 174° South  Level FlightAware Approximate
01:39PM 13.0153 -69.9500 180° South  Level FlightAware Approximate
01:40PM 12.8946 -69.9500 180° South  Level FlightAware Approximate
01:41PM 12.7743 -69.9424 174° South  Level FlightAware Approximate
01:42PM 12.6540 -69.9333 180° South  Level FlightAware Approximate
01:43PM 12.5334 -69.9333 180° South  Level FlightAware Approximate
01:44PM 12.5000 -70.0167 270° West  Level FlightAware Approximate
01:45PM 12.5014 -70.0152 270° West  Level Estimated
01:46PM 12.5000 -70.0167 270° West  Level FlightAware Approximate
01:47PM 12.5014 -70.0152 270° West  Level Estimated
01:48PM 12.5000 -70.0167 270° West  Level FlightAware Approximate